Time;durP1;ratioP1;P1;durP2;ratioP2;P2;SDS_P1;SDS_P2;PMS_P1;PMS_P2;Temp;Humidity;BMP_temperature;BMP_pressure;BME280_temperature;BME280_humidity;BME280_pressure;Samples;Min_cycle;Max_cycle;Signal;HPM_P1;HPM_P2
2022/04/19 00:01:18;;;;;;;1.52;1.42;;;18.80;34.40;;;;;;5170799;27;46958;-11
2022/04/19 00:03:45;;;;;;;1.30;1.20;;;18.80;33.80;;;;;;5170304;27;47843;-12
2022/04/19 00:06:13;;;;;;;1.50;1.40;;;18.80;33.80;;;;;;5170342;27;46988;-11
2022/04/19 00:08:40;;;;;;;1.45;1.35;;;18.70;33.70;;;;;;5170576;27;46921;-12
2022/04/19 00:11:06;;;;;;;1.30;1.20;;;18.70;33.90;;;;;;5170557;27;46886;-20
2022/04/19 00:13:33;;;;;;;1.67;1.40;;;18.70;33.90;;;;;;5170134;27;47058;-20
2022/04/19 00:16:00;;;;;;;1.35;1.25;;;18.70;33.90;;;;;;5165869;27;47224;-11
2022/04/19 00:18:27;;;;;;;1.40;1.30;;;18.70;33.90;;;;;;5165244;27;46894;-20
2022/04/19 00:20:54;;;;;;;1.67;1.58;;;18.70;33.90;;;;;;5152132;27;47017;-12
2022/04/19 00:23:22;;;;;;;1.55;1.40;;;18.60;33.90;;;;;;5150879;27;48167;-20
2022/04/19 00:25:50;;;;;;;1.42;1.30;;;18.60;33.90;;;;;;5168561;27;47100;-12
2022/04/19 00:28:16;;;;;;;1.63;1.52;;;18.60;33.90;;;;;;5168720;27;46901;-20
2022/04/19 00:30:43;;;;;;;1.70;1.55;;;18.60;34.00;;;;;;5168827;27;46896;-20
2022/04/19 00:33:10;;;;;;;1.30;1.20;;;18.60;34.00;;;;;;5168876;27;47064;-20
2022/04/19 00:35:37;;;;;;;2.05;1.42;;;18.60;34.10;;;;;;5168327;27;47088;-12
2022/04/19 00:38:04;;;;;;;1.67;1.30;;;18.50;34.00;;;;;;5168627;27;47045;-12
2022/04/19 00:40:32;;;;;;;1.55;1.45;;;18.50;33.90;;;;;;5168720;27;47191;-11
2022/04/19 00:42:59;;;;;;;1.42;1.33;;;18.50;33.90;;;;;;5169769;27;48137;-20
2022/04/19 00:45:25;;;;;;;1.63;1.30;;;18.50;34.00;;;;;;5169857;27;47243;-21
2022/04/19 00:47:52;;;;;;;1.27;1.25;;;18.40;34.00;;;;;;5169324;27;46947;-12
2022/04/19 00:50:19;;;;;;;1.30;1.20;;;18.40;34.00;;;;;;5169849;27;47178;-12
2022/04/19 00:52:45;;;;;;;1.75;1.63;;;18.40;34.10;;;;;;5169803;27;46907;-12
2022/04/19 00:55:12;;;;;;;2.70;1.50;;;18.40;34.10;;;;;;5169745;27;47435;-11
2022/04/19 00:57:41;;;;;;;1.73;1.50;;;18.40;34.10;;;;;;5169580;27;47049;-20
2022/04/19 01:00:09;;;;;;;1.67;1.40;;;18.30;34.20;;;;;;5169602;27;46886;-11
2022/04/19 01:02:37;;;;;;;1.30;1.30;;;18.30;34.40;;;;;;5169107;27;47942;-11
2022/04/19 01:05:04;;;;;;;1.70;1.40;;;18.30;34.10;;;;;;5169459;27;46866;-20
2022/04/19 01:07:31;;;;;;;1.42;1.33;;;18.30;34.20;;;;;;5169582;27;47085;-20
2022/04/19 01:09:58;;;;;;;1.60;1.50;;;18.30;34.20;;;;;;5169361;27;47265;-12
2022/04/19 01:15:11;;;;;;;1.83;1.40;;;18.20;34.10;;;;;;5166591;27;46904;-11
2022/04/19 01:17:39;;;;;;;1.55;1.40;;;18.20;34.10;;;;;;5169098;27;46878;-11
2022/04/19 01:20:07;;;;;;;1.50;1.40;;;18.20;34.10;;;;;;5169653;27;46931;-11
2022/04/19 01:22:35;;;;;;;1.83;1.30;;;18.20;34.20;;;;;;5169381;27;46810;-12
2022/04/19 01:25:02;;;;;;;1.63;1.52;;;18.10;34.10;;;;;;5168908;27;47436;-20
2022/04/19 01:27:29;;;;;;;1.50;1.40;;;18.10;34.20;;;;;;5169257;27;47294;-20
2022/04/19 01:30:00;;;;;;;1.85;1.40;;;18.10;34.20;;;;;;5169366;27;46874;-11
2022/04/19 01:32:27;;;;;;;1.40;1.30;;;18.10;34.10;;;;;;5168556;27;48781;-11
2022/04/19 01:35:09;;;;;;;1.50;1.35;;;18.10;34.20;;;;;;5169160;27;46907;-20
2022/04/19 01:37:38;;;;;;;2.22;1.30;;;18.10;34.20;;;;;;5169003;27;46896;-11
2022/04/19 01:40:18;;;;;;;1.45;1.30;;;18.00;34.10;;;;;;5169112;27;46983;-11
2022/04/19 01:42:46;;;;;;;1.33;1.23;;;18.00;34.10;;;;;;5168665;27;47855;-12
2022/04/19 01:45:13;;;;;;;1.30;1.20;;;18.00;34.10;;;;;;5168942;27;46989;-11
2022/04/19 01:47:40;;;;;;;1.67;1.38;;;18.00;34.10;;;;;;5168648;27;46976;-12
2022/04/19 01:50:09;;;;;;;1.20;1.10;;;18.00;34.20;;;;;;5168791;27;47314;-10
2022/04/19 01:52:37;;;;;;;1.40;1.30;;;17.90;34.20;;;;;;5168433;27;49051;-20
2022/04/19 01:55:05;;;;;;;1.10;1.10;;;17.90;34.30;;;;;;5168443;27;46831;-20
2022/04/19 01:57:33;;;;;;;1.60;1.35;;;17.90;34.30;;;;;;5168474;27;46935;-11
2022/04/19 02:00:00;;;;;;;1.48;1.38;;;17.90;34.30;;;;;;5167823;27;46872;-11
2022/04/19 02:02:26;;;;;;;2.20;1.40;;;17.90;34.30;;;;;;5168382;27;48832;-20
2022/04/19 02:04:53;;;;;;;1.75;1.40;;;17.80;34.30;;;;;;5168688;27;47592;-12
2022/04/19 02:07:20;;;;;;;1.52;1.42;;;17.80;34.30;;;;;;5168585;27;46916;-20
2022/04/19 02:09:48;;;;;;;1.30;1.20;;;17.80;34.30;;;;;;5168590;27;46938;-12
2022/04/19 02:12:15;;;;;;;1.17;1.17;;;17.80;34.30;;;;;;5168182;27;49104;-19
2022/04/19 02:14:42;;;;;;;1.58;1.25;;;17.80;34.40;;;;;;5168464;27;47384;-12
2022/04/19 02:17:10;;;;;;;1.38;1.27;;;17.70;34.40;;;;;;5168570;27;47019;-11
2022/04/19 02:19:36;;;;;;;1.63;1.30;;;17.70;34.40;;;;;;5168679;27;47151;-20
2022/04/19 02:22:05;;;;;;;1.52;1.40;;;17.70;34.50;;;;;;5168198;27;48192;-11
2022/04/19 02:24:32;;;;;;;1.73;1.40;;;17.70;34.40;;;;;;5168269;27;46782;-20
2022/04/19 02:27:00;;;;;;;1.58;1.48;;;17.70;34.50;;;;;;5168012;27;46896;-20
2022/04/19 02:29:27;;;;;;;1.70;1.60;;;17.70;34.50;;;;;;5168648;27;47158;-20
2022/04/19 02:31:54;;;;;;;1.30;1.20;;;17.60;34.50;;;;;;5167859;27;49068;-11
2022/04/19 02:34:21;;;;;;;1.48;1.38;;;17.60;34.50;;;;;;5168362;27;47086;-11
2022/04/19 02:36:48;;;;;;;1.48;1.20;;;17.60;34.50;;;;;;5168124;27;46829;-20
2022/04/19 02:39:14;;;;;;;2.00;1.50;;;17.60;34.80;;;;;;5168307;27;46846;-19
2022/04/19 02:41:41;;;;;;;1.50;1.40;;;17.60;34.50;;;;;;5167531;27;48058;-11
2022/04/19 02:44:09;;;;;;;1.52;1.42;;;17.60;34.50;;;;;;5167911;27;46855;-12
2022/04/19 02:46:36;;;;;;;1.20;1.20;;;17.50;34.30;;;;;;5168019;27;46775;-11
2022/04/19 02:49:04;;;;;;;1.55;1.40;;;17.50;34.40;;;;;;5168084;27;46912;-12
2022/04/19 02:51:31;;;;;;;1.40;1.30;;;17.50;34.50;;;;;;5167483;27;48986;-11
2022/04/19 02:53:58;;;;;;;1.50;1.40;;;17.50;34.60;;;;;;5168016;27;46899;-11
2022/04/19 02:56:25;;;;;;;1.63;1.23;;;17.40;34.50;;;;;;5168160;27;46895;-11
2022/04/19 02:58:52;;;;;;;1.30;1.20;;;17.40;34.50;;;;;;5168235;27;47267;-12
2022/04/19 03:01:20;;;;;;;1.30;1.20;;;17.40;34.60;;;;;;5167715;27;47287;-12
2022/04/19 03:03:46;;;;;;;1.33;1.23;;;17.40;34.60;;;;;;5167992;27;47361;-20
2022/04/19 03:06:14;;;;;;;1.48;1.27;;;17.40;34.70;;;;;;5167599;27;46997;-11
2022/04/19 03:08:40;;;;;;;1.40;1.30;;;17.30;34.60;;;;;;5168081;27;46917;-20
2022/04/19 03:11:07;;;;;;;1.80;1.30;;;17.40;34.80;;;;;;5170212;27;47883;-20
2022/04/19 03:13:35;;;;;;;1.45;1.35;;;17.30;34.80;;;;;;5171515;27;46921;-19
2022/04/19 03:16:02;;;;;;;1.48;1.30;;;17.30;34.80;;;;;;5171024;27;46884;-11
2022/04/19 03:18:31;;;;;;;1.15;1.08;;;17.30;34.90;;;;;;5171643;27;47229;-12
2022/04/19 03:20:58;;;;;;;1.50;1.23;;;17.30;34.70;;;;;;5170968;27;49059;-21
2022/04/19 03:28:54;;;;;;;1.60;1.50;;;17.20;34.70;;;;;;5168552;27;46787;-11
2022/04/19 03:31:22;;;;;;;1.42;1.33;;;17.20;34.80;;;;;;5171146;27;47058;-11
2022/04/19 03:33:52;;;;;;;1.10;1.08;;;17.10;34.70;;;;;;5171037;27;46902;-20
2022/04/19 03:36:19;;;;;;;1.40;1.30;;;17.10;34.90;;;;;;5170917;27;46743;-11
2022/04/19 03:38:46;;;;;;;1.88;1.30;;;17.10;34.90;;;;;;5171057;27;46887;-20
2022/04/19 03:41:12;;;;;;;1.80;1.35;;;17.10;35.00;;;;;;5170252;27;48143;-20
2022/04/19 03:43:41;;;;;;;2.60;1.60;;;17.10;34.90;;;;;;5170896;27;46833;-20
2022/04/19 03:46:07;;;;;;;1.33;1.23;;;17.10;35.00;;;;;;5170982;27;46813;-11
2022/04/19 03:48:34;;;;;;;1.73;1.33;;;17.00;34.90;;;;;;5171050;27;46992;-20
2022/04/19 03:51:03;;;;;;;1.40;1.30;;;17.10;35.00;;;;;;5170741;27;48368;-11
2022/04/19 03:53:30;;;;;;;1.20;1.10;;;17.00;34.80;;;;;;5170861;27;46909;-20
2022/04/19 03:55:58;;;;;;;1.40;1.30;;;17.00;34.90;;;;;;5170573;27;47099;-20
2022/04/19 03:58:26;;;;;;;1.40;1.30;;;17.00;35.00;;;;;;5170682;27;46859;-20
2022/04/19 04:00:53;;;;;;;1.40;1.30;;;16.90;34.90;;;;;;5170389;27;46843;-11
2022/04/19 04:03:20;;;;;;;1.48;1.38;;;16.90;35.00;;;;;;5170603;27;46813;-18
2022/04/19 04:05:46;;;;;;;1.40;1.30;;;16.90;35.00;;;;;;5170403;27;46849;-20
2022/04/19 04:08:14;;;;;;;1.40;1.30;;;16.90;35.00;;;;;;5170521;27;47184;-12
2022/04/19 04:10:41;;;;;;;1.55;1.42;;;16.90;35.00;;;;;;5170275;27;48913;-20
2022/04/19 04:13:09;;;;;;;1.40;1.10;;;16.90;35.10;;;;;;5170396;27;47442;-11
2022/04/19 04:15:35;;;;;;;1.23;1.13;;;16.80;35.00;;;;;;5170527;27;46880;-11
2022/04/19 04:18:02;;;;;;;1.23;1.13;;;16.90;35.60;;;;;;5170362;27;46918;-20
2022/04/19 04:20:29;;;;;;;2.45;1.50;;;16.80;35.10;;;;;;5169930;27;46826;-20
2022/04/19 04:22:56;;;;;;;1.25;1.20;;;16.80;35.10;;;;;;5168985;27;46968;-19
2022/04/19 04:25:24;;;;;;;1.50;1.40;;;16.80;35.20;;;;;;5170237;27;46891;-20
2022/04/19 04:27:50;;;;;;;1.77;1.20;;;16.80;35.10;;;;;;5170424;27;46874;-20
2022/04/19 04:30:17;;;;;;;1.45;1.35;;;16.70;35.00;;;;;;5169963;27;49046;-11
2022/04/19 04:32:44;;;;;;;1.35;1.30;;;16.70;35.00;;;;;;5170018;27;47153;-11
2022/04/19 04:35:11;;;;;;;1.83;1.40;;;16.70;35.20;;;;;;5169978;27;46998;-12
2022/04/19 04:37:37;;;;;;;1.50;1.40;;;16.70;35.10;;;;;;5170397;27;46848;-11
2022/04/19 04:40:05;;;;;;;1.30;1.20;;;16.70;35.10;;;;;;5170012;27;48111;-12
2022/04/19 04:42:33;;;;;;;1.48;1.38;;;16.70;35.10;;;;;;5169371;27;47446;-11
2022/04/19 04:44:59;;;;;;;1.75;1.60;;;16.60;35.10;;;;;;5168777;27;46831;-20
2022/04/19 04:50:10;;;;;;;1.40;1.25;;;16.60;35.10;;;;;;5167083;27;47580;-20
2022/04/19 04:52:37;;;;;;;1.60;1.30;;;16.60;35.10;;;;;;5169448;27;46897;-12
2022/04/19 04:55:05;;;;;;;1.38;1.27;;;16.60;35.20;;;;;;5169865;27;46831;-20
2022/04/19 04:57:33;;;;;;;1.30;1.20;;;16.60;35.20;;;;;;5169825;27;46780;-20
2022/04/19 05:00:00;;;;;;;1.52;1.42;;;16.50;35.10;;;;;;5169693;27;48839;-20
2022/04/19 05:02:27;;;;;;;1.88;1.45;;;16.50;35.10;;;;;;5169140;27;47192;-20
2022/04/19 05:04:54;;;;;;;1.48;1.38;;;16.50;35.20;;;;;;5169689;27;47243;-11
2022/04/19 05:07:20;;;;;;;1.52;1.20;;;16.50;35.20;;;;;;5169701;27;47289;-11
2022/04/19 05:09:47;;;;;;;1.70;1.52;;;16.50;35.20;;;;;;5169556;27;48074;-11
2022/04/19 05:12:14;;;;;;;1.75;1.17;;;16.50;35.20;;;;;;5169438;27;47385;-20
2022/04/19 05:14:42;;;;;;;1.58;1.48;;;16.50;35.30;;;;;;5169576;27;47003;-11
2022/04/19 05:17:08;;;;;;;1.65;1.38;;;16.50;35.30;;;;;;5169247;27;46909;-11
2022/04/19 05:19:35;;;;;;;1.58;1.48;;;16.40;35.10;;;;;;5169140;27;46929;-20
2022/04/19 05:22:02;;;;;;;1.48;1.38;;;16.40;35.30;;;;;;5169174;27;46938;-20
2022/04/19 05:24:29;;;;;;;1.65;1.30;;;16.40;35.30;;;;;;5169039;27;46951;-12
2022/04/19 05:26:56;;;;;;;1.40;1.30;;;16.40;35.40;;;;;;5168990;27;46967;-12
2022/04/19 05:29:23;;;;;;;1.30;1.20;;;16.40;35.30;;;;;;5169043;27;48333;-20
2022/04/19 05:31:51;;;;;;;1.50;1.40;;;16.40;35.40;;;;;;5168618;27;47072;-19
2022/04/19 05:34:17;;;;;;;2.05;1.58;;;16.40;35.30;;;;;;5168748;27;46815;-20
2022/04/19 05:36:44;;;;;;;2.15;1.60;;;16.40;35.30;;;;;;5169125;27;47155;-20
2022/04/19 05:39:11;;;;;;;1.80;1.42;;;16.40;35.40;;;;;;5169012;27;48027;-19
2022/04/19 05:41:39;;;;;;;1.60;1.50;;;16.30;35.30;;;;;;5167185;27;47000;-20
2022/04/19 05:44:06;;;;;;;1.50;1.40;;;16.30;35.30;;;;;;5168569;27;46878;-11
2022/04/19 05:46:33;;;;;;;1.48;1.33;;;16.30;35.30;;;;;;5168879;27;46915;-11
2022/04/19 05:49:04;;;;;;;3.17;1.30;;;16.30;35.20;;;;;;5168920;27;49128;-12
2022/04/19 05:51:31;;;;;;;1.40;1.30;;;16.30;35.30;;;;;;5168388;27;47005;-11
2022/04/19 05:53:57;;;;;;;1.95;1.75;;;16.30;35.30;;;;;;5168661;27;46743;-11
2022/04/19 05:56:24;;;;;;;1.95;1.48;;;16.30;35.20;;;;;;5168807;27;46975;-20
2022/04/19 05:58:51;;;;;;;1.95;1.70;;;16.30;35.30;;;;;;5168349;27;47952;-20
2022/04/19 06:01:18;;;;;;;2.85;1.70;;;16.30;35.40;;;;;;5168132;27;46918;-19
2022/04/19 06:06:30;;;;;;;2.03;1.60;;;16.30;35.40;;;;;;5167461;27;46836;-19
2022/04/19 06:08:57;;;;;;;1.67;1.50;;;16.30;35.30;;;;;;5168424;27;47829;-11
2022/04/19 06:11:24;;;;;;;2.35;1.60;;;16.30;35.30;;;;;;5167900;27;47422;-11
2022/04/19 06:13:50;;;;;;;3.47;1.92;;;16.30;35.30;;;;;;5168571;27;46870;-20
2022/04/19 06:16:17;;;;;;;1.50;1.40;;;16.30;35.30;;;;;;5168642;27;47037;-11
2022/04/19 06:18:44;;;;;;;1.90;1.80;;;16.30;35.30;;;;;;5168614;27;48123;-12
2022/04/19 06:21:10;;;;;;;2.15;1.90;;;16.30;35.40;;;;;;5168445;27;46824;-20
2022/04/19 06:23:38;;;;;;;2.45;1.80;;;16.30;35.40;;;;;;5168368;27;46746;-11
2022/04/19 06:26:05;;;;;;;2.33;1.85;;;16.30;35.30;;;;;;5168255;27;46816;-11
2022/04/19 06:28:32;;;;;;;2.75;1.75;;;16.30;35.30;;;;;;5168295;27;48786;-12
2022/04/19 06:30:58;;;;;;;2.45;1.60;;;16.30;35.20;;;;;;5166209;27;47475;-20
2022/04/19 06:33:25;;;;;;;1.88;1.58;;;16.40;35.30;;;;;;5163358;27;46940;-19
2022/04/19 06:35:52;;;;;;;2.13;1.80;;;16.30;35.20;;;;;;5166910;27;46933;-11
2022/04/19 06:38:18;;;;;;;2.88;1.73;;;16.30;35.20;;;;;;5167571;27;46850;-12
2022/04/19 06:40:46;;;;;;;3.55;1.73;;;16.40;35.30;;;;;;5167741;27;46986;-12
2022/04/19 06:43:13;;;;;;;1.55;1.45;;;16.40;35.20;;;;;;5168536;27;46928;-19
2022/04/19 06:45:40;;;;;;;3.28;1.90;;;16.40;35.80;;;;;;5170273;27;47266;-20
2022/04/19 06:48:07;;;;;;;3.72;1.70;;;16.40;35.30;;;;;;5170673;27;48160;-11
2022/04/19 06:50:34;;;;;;;3.10;1.77;;;16.40;35.20;;;;;;5170037;27;46960;-19
2022/04/19 06:53:01;;;;;;;1.80;1.58;;;16.40;35.30;;;;;;5170751;27;46941;-11
2022/04/19 06:55:27;;;;;;;2.40;1.98;;;16.40;35.10;;;;;;5170705;27;46903;-11
2022/04/19 06:57:55;;;;;;;2.13;1.65;;;16.50;35.20;;;;;;5170617;27;48211;-19
2022/04/19 07:00:22;;;;;;;2.42;2.15;;;16.50;35.30;;;;;;5170396;27;46788;-20
2022/04/19 07:02:49;;;;;;;1.48;1.20;;;16.50;35.20;;;;;;5171457;27;47023;-20
2022/04/19 07:05:17;;;;;;;1.95;1.70;;;16.50;35.30;;;;;;5171568;27;46888;-20
2022/04/19 07:07:43;;;;;;;1.60;1.50;;;16.50;35.30;;;;;;5171336;27;47836;-11
2022/04/19 07:10:11;;;;;;;1.67;1.58;;;16.50;35.30;;;;;;5171350;27;46903;-20
2022/04/19 07:12:38;;;;;;;2.08;1.63;;;16.50;35.30;;;;;;5171275;27;46913;-12
2022/04/19 07:15:08;;;;;;;3.90;1.60;;;16.50;35.30;;;;;;5171603;27;47349;-19
2022/04/19 07:17:38;;;;;;;1.90;1.50;;;16.60;35.40;;;;;;5170238;27;48226;-20
2022/04/19 07:28:19;;;;;;;2.30;2.10;;;16.60;35.30;;;;;;5167284;27;47397;-20
2022/04/19 07:30:47;;;;;;;2.67;1.77;;;16.60;35.30;;;;;;5170158;27;47606;-11
2022/04/19 07:33:16;;;;;;;1.80;1.70;;;16.60;35.30;;;;;;5170909;27;46856;-11
2022/04/19 07:35:42;;;;;;;1.98;1.65;;;16.60;35.40;;;;;;5170809;27;46874;-20
2022/04/19 07:38:09;;;;;;;1.80;1.70;;;16.60;35.40;;;;;;5170830;27;46926;-11
2022/04/19 07:40:36;;;;;;;1.88;1.77;;;16.60;35.40;;;;;;5170577;27;47238;-11
2022/04/19 07:43:03;;;;;;;2.58;2.00;;;16.70;35.40;;;;;;5170845;27;46882;-20
2022/04/19 07:45:30;;;;;;;2.17;1.98;;;16.70;35.40;;;;;;5171022;27;46910;-11
2022/04/19 07:47:58;;;;;;;2.50;1.90;;;16.70;35.40;;;;;;5170761;27;47926;-11
2022/04/19 07:50:24;;;;;;;3.88;1.95;;;16.70;35.40;;;;;;5170775;27;47034;-20
2022/04/19 07:52:51;;;;;;;3.25;2.42;;;16.70;35.40;;;;;;5170596;27;47204;-20
2022/04/19 07:55:18;;;;;;;2.15;1.95;;;16.80;35.40;;;;;;5170818;27;47330;-20
2022/04/19 07:57:45;;;;;;;1.85;1.60;;;16.80;35.40;;;;;;5169331;27;46989;-20
2022/04/19 08:00:13;;;;;;;2.08;1.88;;;16.80;35.40;;;;;;5170789;27;46883;-11
2022/04/19 08:02:40;;;;;;;2.65;2.05;;;16.80;35.30;;;;;;5170747;27;47047;-11
2022/04/19 08:05:09;;;;;;;4.32;2.13;;;16.80;35.40;;;;;;5170659;27;46898;-11
2022/04/19 08:07:36;;;;;;;2.95;1.80;;;16.80;35.30;;;;;;5170544;27;48892;-11
2022/04/19 08:10:03;;;;;;;2.22;2.03;;;16.90;35.40;;;;;;5170192;27;47440;-20
2022/04/19 08:12:30;;;;;;;2.00;1.80;;;16.90;35.40;;;;;;5170387;27;46893;-11
2022/04/19 08:14:57;;;;;;;2.13;1.92;;;16.90;35.40;;;;;;5170782;27;46951;-11
2022/04/19 08:17:24;;;;;;;1.85;1.75;;;16.90;35.40;;;;;;5170056;27;49048;-20
2022/04/19 08:19:50;;;;;;;1.90;1.80;;;16.90;35.40;;;;;;5169989;27;46898;-11
2022/04/19 08:22:18;;;;;;;2.08;1.90;;;16.90;35.50;;;;;;5170501;27;46927;-11
2022/04/19 08:24:45;;;;;;;1.70;1.60;;;17.00;35.50;;;;;;5170408;27;46893;-11
2022/04/19 08:27:14;;;;;;;3.22;1.77;;;17.00;35.50;;;;;;5170081;27;48180;-20
2022/04/19 08:29:41;;;;;;;1.90;1.80;;;17.00;35.50;;;;;;5169385;27;46876;-20
2022/04/19 08:32:08;;;;;;;2.00;1.83;;;17.00;35.50;;;;;;5168826;27;46984;-11
2022/04/19 08:34:34;;;;;;;1.80;1.70;;;17.10;35.40;;;;;;5168553;27;47085;-19
2022/04/19 08:37:02;;;;;;;2.40;1.70;;;17.10;35.50;;;;;;5168044;27;47839;-11
2022/04/19 08:39:30;;;;;;;2.17;1.73;;;17.10;35.40;;;;;;5168443;27;46945;-20
2022/04/19 08:41:57;;;;;;;1.88;1.63;;;17.10;35.40;;;;;;5167807;27;46804;-20
2022/04/19 08:44:25;;;;;;;1.75;1.65;;;17.20;35.40;;;;;;5168203;27;46940;-19
2022/04/19 08:46:52;;;;;;;2.22;2.03;;;17.20;35.30;;;;;;5168003;27;48225;-11
2022/04/19 08:49:19;;;;;;;2.60;1.60;;;17.30;35.20;;;;;;5168212;27;47065;-12
2022/04/19 08:51:46;;;;;;;2.17;1.98;;;17.30;35.20;;;;;;5169144;27;46901;-10
2022/04/19 08:59:42;;;;;;;2.20;1.80;;;17.40;35.10;;;;;;5166716;27;46776;-12
2022/04/19 09:02:19;;;;;;;3.10;2.05;;;17.40;35.10;;;;;;5169703;27;46922;-10
2022/04/19 09:04:46;;;;;;;1.88;1.77;;;17.40;35.10;;;;;;5169765;27;46827;-11
2022/04/19 09:07:13;;;;;;;2.38;1.73;;;17.40;35.20;;;;;;5168497;27;47073;-11
2022/04/19 09:09:39;;;;;;;2.25;1.70;;;17.40;35.20;;;;;;5169576;27;46903;-19
2022/04/19 09:12:10;;;;;;;2.70;1.90;;;17.50;35.30;;;;;;5169399;27;46836;-11
2022/04/19 09:14:36;;;;;;;2.78;1.75;;;17.50;35.20;;;;;;5169474;27;46854;-19
2022/04/19 09:17:04;;;;;;;2.63;1.50;;;17.60;35.30;;;;;;5169033;27;48781;-20
2022/04/19 09:19:31;;;;;;;2.53;1.83;;;17.60;35.30;;;;;;5169420;27;46919;-12
2022/04/19 09:21:58;;;;;;;2.00;1.80;;;17.60;35.30;;;;;;5168801;27;46753;-11
2022/04/19 09:24:25;;;;;;;2.30;2.10;;;17.70;35.10;;;;;;5169518;27;46995;-20
2022/04/19 09:26:51;;;;;;;2.90;2.00;;;17.70;35.20;;;;;;5168794;27;48100;-20
2022/04/19 09:29:21;;;;;;;1.80;1.70;;;17.70;35.10;;;;;;5169013;27;46877;-11
2022/04/19 09:31:50;;;;;;;3.60;2.25;;;17.80;35.10;;;;;;5169020;27;46858;-20
2022/04/19 09:34:28;;;;;;;1.92;1.83;;;17.80;35.20;;;;;;5169207;27;47144;-20
2022/04/19 09:36:55;;;;;;;1.95;1.70;;;17.80;35.10;;;;;;5168928;27;47075;-11
2022/04/19 09:39:28;;;;;;;1.77;1.67;;;17.90;35.00;;;;;;5169321;27;46991;-11
2022/04/19 09:42:01;;;;;;;2.38;2.13;;;17.90;35.00;;;;;;5168529;27;46825;-20
2022/04/19 09:44:29;;;;;;;3.78;1.85;;;18.00;35.10;;;;;;5168968;27;47283;-12
2022/04/19 09:47:04;;;;;;;2.45;1.58;;;18.00;35.00;;;;;;5168377;27;49120;-12
2022/04/19 09:49:47;;;;;;;2.53;1.77;;;18.00;35.00;;;;;;5150152;27;46925;-20
2022/04/19 09:52:15;;;;;;;1.83;1.67;;;18.10;35.10;;;;;;5168831;27;46864;-11
2022/04/19 09:54:44;;;;;;;2.13;1.90;;;18.10;35.00;;;;;;5168962;27;46972;-20
2022/04/19 09:57:11;;;;;;;2.47;1.60;;;18.10;35.00;;;;;;5168446;27;48089;-11
2022/04/19 09:59:43;;;;;;;2.53;1.83;;;18.20;35.00;;;;;;5168666;27;46899;-20
2022/04/19 10:10:19;;;;;;;1.70;1.60;;;18.30;34.90;;;;;;5134731;27;46828;-13
2022/04/19 10:12:46;;;;;;;2.00;1.90;;;18.30;34.90;;;;;;5167926;27;46952;-22
2022/04/19 10:15:14;;;;;;;2.03;1.83;;;18.40;34.90;;;;;;5167988;27;47367;-14
2022/04/19 10:17:41;;;;;;;1.80;1.70;;;18.40;34.90;;;;;;5168498;27;47970;-21
2022/04/19 10:20:09;;;;;;;2.17;1.80;;;18.50;35.00;;;;;;5167539;27;47307;-21
2022/04/19 10:22:35;;;;;;;1.83;1.70;;;18.50;35.00;;;;;;5168302;27;46859;-13
2022/04/19 10:25:03;;;;;;;2.25;2.05;;;18.50;34.90;;;;;;5168574;27;46939;-13
2022/04/19 10:27:33;;;;;;;2.30;1.75;;;18.60;34.90;;;;;;5167395;27;48029;-21
2022/04/19 10:30:00;;;;;;;1.90;1.80;;;18.60;35.00;;;;;;5167972;27;47396;-21
2022/04/19 10:32:33;;;;;;;1.70;1.50;;;18.70;35.00;;;;;;5168151;27;46901;-14
2022/04/19 10:35:00;;;;;;;1.98;1.63;;;18.70;35.00;;;;;;5168280;27;46934;-21
2022/04/19 10:37:27;;;;;;;1.67;1.58;;;18.80;34.90;;;;;;5168004;27;48094;-21
2022/04/19 10:40:04;;;;;;;2.50;1.90;;;18.80;35.50;;;;;;5168223;27;46859;-12
2022/04/19 10:42:32;;;;;;;2.38;1.77;;;18.80;34.80;;;;;;5160902;27;47163;-21
2022/04/19 10:44:59;;;;;;;3.42;1.92;;;18.90;35.00;;;;;;5147195;27;47191;-13
2022/04/19 10:47:28;;;;;;;2.03;1.70;;;18.90;34.80;;;;;;5145353;27;48796;-21
2022/04/19 10:50:00;;;;;;;2.25;1.60;;;19.00;34.90;;;;;;5146893;27;46825;-21
2022/04/19 10:52:49;;;;;;;2.63;1.75;;;19.10;34.90;;;;;;5146714;27;46867;-13
2022/04/19 10:55:24;;;;;;;3.20;1.67;;;19.10;34.80;;;;;;5147035;27;46882;-21
2022/04/19 11:00:56;;;;;;;2.28;1.80;;;19.20;34.60;;;;;;5059787;28;47124;-21
2022/04/19 11:03:46;;;;;;;2.17;1.60;;;19.30;34.70;;;;;;5063195;28;46906;-21
2022/04/19 11:06:32;;;;;;;1.80;1.60;;;19.30;34.40;;;;;;5115593;27;46981;-13
2022/04/19 11:09:21;;;;;;;2.03;1.70;;;19.40;34.50;;;;;;5146916;27;48866;-12
2022/04/19 11:11:49;;;;;;;1.75;1.65;;;19.50;34.50;;;;;;5146406;27;46907;-13
2022/04/19 11:14:23;;;;;;;2.10;1.75;;;19.60;34.80;;;;;;5146676;27;46857;-21
2022/04/19 11:16:51;;;;;;;2.92;1.95;;;19.70;35.30;;;;;;5147551;27;47022;-22
2022/04/19 11:19:23;;;;;;;2.53;1.98;;;19.80;35.10;;;;;;5161158;27;48165;-14
2022/04/19 11:21:56;;;;;;;1.70;1.60;;;19.90;35.00;;;;;;5167098;27;46862;-13
2022/04/19 11:25:00;;;;;;;2.83;1.50;;;20.00;34.80;;;;;;5165140;27;47232;-13
2022/04/19 11:28:00;;;;;;;2.42;1.90;;;20.00;34.40;;;;;;5166583;27;47205;-21
2022/04/19 11:30:27;;;;;;;1.70;1.60;;;20.10;34.50;;;;;;5167420;27;46965;-13
2022/04/19 11:32:55;;;;;;;2.17;1.80;;;20.20;34.10;;;;;;5170329;27;46931;-14
2022/04/19 11:35:21;;;;;;;3.40;1.70;;;20.20;34.00;;;;;;5171061;27;46838;-21
2022/04/19 11:37:49;;;;;;;3.28;1.50;;;20.30;34.00;;;;;;5171073;27;47260;-21
2022/04/19 11:48:50;;;;;;;1.58;1.48;;;20.60;33.70;;;;;;5082829;28;47014;-13
2022/04/19 11:51:17;;;;;;;1.50;1.40;;;20.70;33.50;;;;;;5084728;28;49087;-21
2022/04/19 11:53:45;;;;;;;2.95;1.60;;;20.70;33.50;;;;;;5121625;27;47186;-21
2022/04/19 11:56:12;;;;;;;3.00;1.30;;;20.80;33.30;;;;;;5168944;27;47075;-21
2022/04/19 11:58:41;;;;;;;3.53;1.75;;;20.80;33.20;;;;;;5169518;27;47268;-14
2022/04/19 12:01:10;;;;;;;1.50;1.30;;;20.90;33.30;;;;;;5168330;27;47833;-23
2022/04/19 12:03:37;;;;;;;2.83;1.42;;;21.00;33.30;;;;;;5168772;27;47025;-13
2022/04/19 12:06:08;;;;;;;1.92;1.40;;;21.10;33.10;;;;;;5168689;27;46956;-22
2022/04/19 12:08:37;;;;;;;3.90;1.77;;;21.10;33.10;;;;;;5170407;27;47276;-13
2022/04/19 12:11:06;;;;;;;1.63;1.52;;;21.20;32.90;;;;;;5168178;27;47822;-14
2022/04/19 12:13:32;;;;;;;2.97;1.40;;;21.20;32.70;;;;;;5169223;27;46954;-21
2022/04/19 12:16:00;;;;;;;1.45;1.35;;;21.30;32.70;;;;;;5170358;27;46961;-13
2022/04/19 12:18:30;;;;;;;2.17;1.75;;;21.40;32.60;;;;;;5169734;27;46996;-14
2022/04/19 12:20:57;;;;;;;1.65;1.55;;;21.40;32.40;;;;;;5168698;27;47863;-14
2022/04/19 12:23:24;;;;;;;1.63;1.52;;;21.50;32.50;;;;;;5168721;27;46878;-21
2022/04/19 12:26:01;;;;;;;1.45;1.10;;;21.60;32.50;;;;;;5168833;27;46818;-20
2022/04/19 12:28:45;;;;;;;2.03;1.42;;;21.70;32.40;;;;;;5169248;27;47174;-14
2022/04/19 12:31:32;;;;;;;1.50;1.40;;;21.70;32.40;;;;;;5168548;27;47942;-13
2022/04/19 12:33:59;;;;;;;2.22;1.52;;;21.80;32.30;;;;;;5166823;27;47082;-21
2022/04/19 12:36:26;;;;;;;2.03;1.58;;;21.80;32.10;;;;;;5167287;27;47002;-14
2022/04/19 12:39:03;;;;;;;1.63;1.40;;;21.90;32.00;;;;;;5168261;27;47015;-21
2022/04/19 12:41:42;;;;;;;1.58;1.23;;;21.90;32.00;;;;;;5168403;27;48226;-22
2022/04/19 12:44:12;;;;;;;1.63;1.30;;;22.00;31.90;;;;;;5165806;27;47005;-14
2022/04/19 12:46:45;;;;;;;1.45;1.35;;;22.10;31.90;;;;;;5166719;27;46920;-21
2022/04/19 12:49:22;;;;;;;1.40;1.20;;;22.10;31.80;;;;;;5167496;27;47038;-13
2022/04/19 12:51:59;;;;;;;1.35;1.25;;;22.10;31.70;;;;;;5167912;27;47084;-13
2022/04/19 12:54:26;;;;;;;1.52;1.33;;;22.20;31.60;;;;;;5168775;27;46870;-13
2022/04/19 12:57:01;;;;;;;1.55;1.38;;;22.30;31.50;;;;;;5165334;27;46986;-22
2022/04/19 12:59:29;;;;;;;1.40;1.30;;;22.30;31.50;;;;;;5168494;27;46954;-22
2022/04/19 13:01:56;;;;;;;1.45;1.35;;;22.40;31.40;;;;;;5165675;27;48162;-21
2022/04/19 13:04:23;;;;;;;1.65;1.48;;;22.40;31.50;;;;;;5168447;27;47166;-21
2022/04/19 13:12:19;;;;;;;1.50;1.40;;;22.60;31.10;;;;;;5165715;27;46890;-22
2022/04/19 13:14:49;;;;;;;1.48;1.38;;;22.60;31.10;;;;;;5168044;27;46931;-22
2022/04/19 13:17:16;;;;;;;1.20;1.10;;;22.70;31.10;;;;;;5167462;27;46952;-13
2022/04/19 13:19:43;;;;;;;1.48;1.38;;;22.70;30.90;;;;;;5167796;27;47003;-22
2022/04/19 13:22:09;;;;;;;2.60;1.27;;;22.80;30.90;;;;;;5168054;27;48795;-22
2022/04/19 13:24:38;;;;;;;1.67;1.35;;;22.80;30.90;;;;;;5168044;27;46888;-21
2022/04/19 13:27:05;;;;;;;1.52;1.33;;;22.80;30.60;;;;;;5167669;27;47012;-13
2022/04/19 13:29:32;;;;;;;1.88;1.10;;;22.80;31.00;;;;;;5168109;27;47124;-22
2022/04/19 13:32:00;;;;;;;1.63;1.50;;;22.90;30.40;;;;;;5167617;27;47069;-21
2022/04/19 13:34:27;;;;;;;2.30;1.25;;;22.90;30.30;;;;;;5167867;27;47280;-16
2022/04/19 13:36:56;;;;;;;1.55;1.45;;;23.00;30.10;;;;;;5167683;27;46982;-22
2022/04/19 13:39:23;;;;;;;0.98;0.98;;;23.00;30.20;;;;;;5168210;27;46945;-14
2022/04/19 13:41:49;;;;;;;3.00;1.40;;;23.10;30.00;;;;;;5167905;27;48779;-22
2022/04/19 13:44:17;;;;;;;1.93;1.30;;;23.10;30.10;;;;;;5167573;27;47007;-21
2022/04/19 13:46:44;;;;;;;3.97;1.77;;;23.10;30.20;;;;;;5166956;27;47033;-13